Pickens, Arkansas
Current Conditions -  °F | °C
As of 3:53 AM on Friday 31 Oct 2014 (Local Time) from KLLQ Reporting Station
Clear Clear  
Wind Chill: 55°   Ceiling: Unl
Heat Index: 55°   Visibility: 10mi
Dew Point: 47°   Wind: 6mph
Humidity: 74%   Direction: 300°WNW
Pressure: 30.03"   Gusts: NA
Location:  33.85°N, 91.48°W
Report Text: KLLQ 310853Z AUTO 30005KT 10SM CLR 13/08 A3003 RMK AO2 SLP169 T01280083 50001
Loading
Personal Weather Stations






























Interactive Weather Map
Tropical Storm Tracking
New forecast layout! Learn more

10-Day Weather Forecast

Advertisements
Track Severe Weather on mobile